Time;durP1;ratioP1;P1;durP2;ratioP2;P2;SDS_P1;SDS_P2;PMS_P1;PMS_P2;Temp;Humidity;BMP_temperature;BMP_pressure;BME280_temperature;BME280_humidity;BME280_pressure;Samples;Min_cycle;Max_cycle;Signal;HPM_P1;HPM_P2
2022/08/04 00:00:00;;;;;;;;;;;;;;;28.28;39.99;99417.38;2091503;28;19916;-46
2022/08/04 00:01:07;;;;;;;;;;;;;;;28.28;39.83;99418.22;2090969;28;19927;-47
2022/08/04 00:02:21;;;;;;;;;;;;;;;28.28;39.85;99417.38;2089968;28;20519;-46
2022/08/04 00:03:22;;;;;;;;;;;;;;;28.29;39.85;99419.06;2091921;28;20270;-46
2022/08/04 00:04:32;;;;;;;;;;;;;;;28.29;39.89;99416.31;2085812;28;20207;-46
2022/08/04 00:05:32;;;;;;;;;;;;;;;28.27;39.79;99422.09;2091966;28;20023;-46
2022/08/04 00:06:32;;;;;;;;;;;;;;;28.27;39.77;99415.69;2093569;28;19916;-47
2022/08/04 00:07:41;;;;;;;;;;;;;;;28.27;39.98;99412.91;2085031;28;19908;-46
2022/08/04 00:08:49;;;;;;;;;;;;;;;28.27;39.70;99415.69;2087381;28;19985;-47
2022/08/04 00:10:00;;;;;;;;;;;;;;;28.27;39.92;99416.53;2083621;28;19915;-47
2022/08/04 00:11:01;;;;;;;;;;;;;;;28.27;39.88;99410.13;2083280;28;20023;-48
2022/08/04 00:12:02;;;;;;;;;;;;;;;28.27;39.87;99412.91;2089052;28;19919;-46
2022/08/04 00:13:03;;;;;;;;;;;;;;;28.26;39.91;99414.84;2091122;28;19916;-47
2022/08/04 00:14:05;;;;;;;;;;;;;;;28.26;39.86;99408.44;2093510;28;20303;-47
2022/08/04 00:15:09;;;;;;;;;;;;;;;28.26;39.70;99412.06;2090734;28;20322;-47
2022/08/04 00:16:09;;;;;;;;;;;;;;;28.26;39.79;99408.44;2093079;28;19934;-49
2022/08/04 00:17:10;;;;;;;;;;;;;;;28.26;39.78;99403.75;2093492;28;19978;-47
2022/08/04 00:18:13;;;;;;;;;;;;;;;28.26;39.85;99402.91;2087878;28;19920;-47
2022/08/04 00:19:21;;;;;;;;;;;;;;;28.26;39.72;99400.13;2084708;28;20157;-47
2022/08/04 00:20:23;;;;;;;;;;;;;;;28.26;39.70;99398.22;2091036;28;19908;-49
2022/08/04 00:21:24;;;;;;;;;;;;;;;28.26;39.64;99402.91;2091312;28;20500;-50
2022/08/04 00:22:29;;;;;;;;;;;;;;;28.26;39.75;99397.38;2093157;28;20358;-49
2022/08/04 00:23:32;;;;;;;;;;;;;;;28.27;39.77;99399.03;2092415;28;19908;-49
2022/08/04 00:24:34;;;;;;;;;;;;;;;28.26;39.93;99395.44;2086750;28;19916;-51
2022/08/04 00:25:39;;;;;;;;;;;;;;;28.26;39.75;99397.38;2091655;28;19908;-52
2022/08/04 00:26:40;;;;;;;;;;;;;;;28.26;39.86;99391.81;2093131;28;20281;-49
2022/08/04 00:27:40;;;;;;;;;;;;;;;28.26;39.83;99391.81;2087825;28;20320;-50
2022/08/04 00:28:41;;;;;;;;;;;;;;;28.26;39.77;99391.81;2092889;28;19939;-49
2022/08/04 00:29:42;;;;;;;;;;;;;;;28.26;39.84;99391.81;2095477;28;20030;-50
2022/08/04 00:30:42;;;;;;;;;;;;;;;28.25;39.74;99384.56;2089567;28;19960;-49
2022/08/04 00:31:43;;;;;;;;;;;;;;;28.26;39.63;99386.28;2089860;28;19915;-52
2022/08/04 00:32:43;;;;;;;;;;;;;;;28.26;39.66;99383.50;2086724;28;19990;-49
2022/08/04 00:33:44;;;;;;;;;;;;;;;28.27;39.70;99387.97;2090059;28;20709;-48
2022/08/04 00:34:45;;;;;;;;;;;;;;;28.26;39.64;99389.91;2088128;28;20322;-50
2022/08/04 00:35:49;;;;;;;;;;;;;;;28.25;39.49;99379.03;2086726;28;19923;-52
2022/08/04 00:36:50;;;;;;;;;;;;;;;28.26;39.48;99380.75;2089076;28;20463;-52
2022/08/04 00:37:51;;;;;;;;;;;;;;;28.27;39.56;99382.41;2086619;28;20001;-49
2022/08/04 00:38:52;;;;;;;;;;;;;;;28.26;39.38;99383.50;2091057;28;20364;-51
2022/08/04 00:39:55;;;;;;;;;;;;;;;28.26;39.38;99375.19;2093262;28;19908;-50
2022/08/04 00:41:05;;;;;;;;;;;;;;;28.26;39.43;99372.44;2092292;28;20207;-51
2022/08/04 00:42:14;;;;;;;;;;;;;;;28.26;39.39;99380.75;2093014;28;20520;-49
2022/08/04 00:43:30;;;;;;;;;;;;;;;28.25;39.13;99374.34;2086884;28;20265;-50
2022/08/04 00:44:34;;;;;;;;;;;;;;;28.25;39.09;99373.47;2091591;28;19934;-52
2022/08/04 00:45:49;;;;;;;;;;;;;;;28.25;39.11;99370.72;2090503;28;20033;-48
2022/08/04 00:46:59;;;;;;;;;;;;;;;28.25;39.22;99371.59;2090502;28;19915;-49
2022/08/04 00:48:11;;;;;;;;;;;;;;;28.24;39.07;99371.81;2092657;28;19916;-49
2022/08/04 00:49:21;;;;;;;;;;;;;;;28.26;39.04;99375.19;2093134;28;20321;-49
2022/08/04 00:50:43;;;;;;;;;;;;;;;28.24;38.98;99367.09;2094952;28;20111;-52
2022/08/04 00:52:02;;;;;;;;;;;;;;;28.24;39.09;99377.34;2092508;28;19915;-50
2022/08/04 00:53:02;;;;;;;;;;;;;;;28.26;39.03;99383.50;2090911;28;19922;-51
2022/08/04 00:54:03;;;;;;;;;;;;;;;28.25;38.95;99379.03;2092543;28;19916;-49
2022/08/04 00:55:12;;;;;;;;;;;;;;;28.24;39.13;99372.63;2094621;28;19908;-49
2022/08/04 00:56:29;;;;;;;;;;;;;;;28.26;39.25;99375.19;2092367;28;20701;-52
2022/08/04 00:57:38;;;;;;;;;;;;;;;28.25;39.17;99379.03;2091238;28;20508;-49
2022/08/04 00:58:45;;;;;;;;;;;;;;;28.25;39.09;99379.03;2093549;28;19916;-49
2022/08/04 01:00:11;;;;;;;;;;;;;;;28.25;39.00;99379.03;2094425;28;20261;-51
2022/08/04 01:01:18;;;;;;;;;;;;;;;28.26;39.39;99386.28;2094619;28;19916;-51
2022/08/04 01:02:24;;;;;;;;;;;;;;;28.24;39.05;99386.50;2092753;28;19916;-50
2022/08/04 01:03:45;;;;;;;;;;;;;;;28.25;39.24;99379.03;2093941;28;19927;-49
2022/08/04 01:04:45;;;;;;;;;;;;;;;28.25;39.11;99385.44;2079450;28;20200;-52
2022/08/04 01:06:01;;;;;;;;;;;;;;;28.25;39.23;99387.34;2080514;28;19961;-51
2022/08/04 01:07:13;;;;;;;;;;;;;;;28.25;38.98;99379.03;2087681;28;19920;-51
2022/08/04 01:08:33;;;;;;;;;;;;;;;28.24;39.14;99382.88;2095195;28;20336;-49
2022/08/04 01:09:43;;;;;;;;;;;;;;;28.25;39.08;99379.91;2086550;28;19991;-49
2022/08/04 01:10:58;;;;;;;;;;;;;;;28.25;39.30;99385.44;2090814;28;20253;-49
2022/08/04 01:12:08;;;;;;;;;;;;;;;28.24;39.01;99377.34;2088717;28;19919;-50
2022/08/04 01:13:27;;;;;;;;;;;;;;;28.24;39.15;99383.72;2094217;28;20403;-49
2022/08/04 01:14:33;;;;;;;;;;;;;;;28.25;39.08;99379.03;2086192;28;19948;-49
2022/08/04 01:15:39;;;;;;;;;;;;;;;28.24;39.15;99372.63;2090227;28;20269;-49
2022/08/04 01:16:51;;;;;;;;;;;;;;;28.24;39.21;99378.19;2093857;28;19916;-50
2022/08/04 01:17:58;;;;;;;;;;;;;;;28.24;39.21;99377.34;2088747;28;19920;-50
2022/08/04 01:19:15;;;;;;;;;;;;;;;28.24;39.05;99380.13;2087062;28;20025;-51
2022/08/04 01:20:19;;;;;;;;;;;;;;;28.24;38.81;99380.13;2080306;28;20779;-51
2022/08/04 01:21:28;;;;;;;;;;;;;;;28.23;38.91;99378.44;2092961;28;19927;-50
2022/08/04 01:22:31;;;;;;;;;;;;;;;28.24;38.72;99377.34;2085037;28;19927;-52
2022/08/04 01:24:04;;;;;;;;;;;;;;;28.24;38.61;99377.34;2085149;28;20083;-51
2022/08/04 01:25:23;;;;;;;;;;;;;;;28.24;38.68;99382.88;2053287;28;19918;-49
2022/08/04 01:26:41;;;;;;;;;;;;;;;28.23;38.66;99381.19;2083253;28;20391;-49
2022/08/04 01:27:46;;;;;;;;;;;;;;;28.23;38.76;99381.19;2085924;28;19917;-49
2022/08/04 01:29:01;;;;;;;;;;;;;;;28.24;38.82;99378.19;2081569;28;19989;-51
2022/08/04 01:30:02;;;;;;;;;;;;;;;28.23;38.71;99373.72;2085703;28;19923;-49
2022/08/04 01:31:12;;;;;;;;;;;;;;;28.24;38.80;99377.34;2084332;28;19966;-49
2022/08/04 01:32:32;;;;;;;;;;;;;;;28.23;38.89;99381.19;2080049;28;19916;-49
2022/08/04 01:33:34;;;;;;;;;;;;;;;28.23;38.89;99373.72;2086597;28;20041;-49
2022/08/04 01:34:39;;;;;;;;;;;;;;;28.22;38.82;99380.31;2086277;28;19928;-50
2022/08/04 01:35:46;;;;;;;;;;;;;;;28.23;38.70;99372.88;2075437;28;19909;-52
2022/08/04 01:36:52;;;;;;;;;;;;;;;28.21;38.87;99373.09;2076463;28;20327;-48
2022/08/04 01:38:04;;;;;;;;;;;;;;;28.23;38.65;99370.97;2072948;28;20304;-49
2022/08/04 01:40:26;;;;;;;;;;;;;;;28.22;38.61;99374.78;2084589;28;19908;-49
2022/08/04 01:41:26;;;;;;;;;;;;;;;28.23;38.36;99370.13;2071970;28;19917;-49
2022/08/04 01:42:27;;;;;;;;;;;;;;;28.23;38.38;99375.66;2079731;28;20357;-49
2022/08/04 01:43:29;;;;;;;;;;;;;;;28.23;38.28;99375.66;2084985;28;19973;-52
2022/08/04 01:44:30;;;;;;;;;;;;;;;28.23;38.21;99367.34;2068367;28;20300;-50
2022/08/04 01:45:30;;;;;;;;;;;;;;;28.21;38.34;99379.50;2067779;28;19925;-48
2022/08/04 01:46:32;;;;;;;;;;;;;;;28.23;38.31;99375.66;2078487;28;19916;-48
2022/08/04 01:47:34;;;;;;;;;;;;;;;28.21;38.36;99368.41;2082102;28;19916;-52
2022/08/04 01:48:37;;;;;;;;;;;;;;;28.23;38.28;99367.34;2077449;28;19925;-51
2022/08/04 01:49:37;;;;;;;;;;;;;;;28.23;38.18;99373.72;2084171;28;19917;-52
2022/08/04 01:50:39;;;;;;;;;;;;;;;28.22;38.08;99374.78;2083359;28;20364;-49
2022/08/04 01:51:41;;;;;;;;;;;;;;;28.24;37.92;99374.56;2086082;28;19922;-49
2022/08/04 01:52:42;;;;;;;;;;;;;;;28.23;38.12;99372.88;2077127;28;19944;-49
2022/08/04 01:53:43;;;;;;;;;;;;;;;28.22;38.24;99369.25;2079889;28;19923;-49
2022/08/04 01:54:45;;;;;;;;;;;;;;;28.23;38.22;99367.34;2080143;28;19923;-52
2022/08/04 01:55:48;;;;;;;;;;;;;;;28.21;38.39;99368.41;2082972;28;20389;-51
2022/08/04 01:56:49;;;;;;;;;;;;;;;28.21;38.18;99354.56;2077601;28;19974;-50
2022/08/04 01:57:51;;;;;;;;;;;;;;;28.21;38.17;99365.63;2086794;28;19924;-49
2022/08/04 01:58:55;;;;;;;;;;;;;;;28.21;38.18;99360.09;2078472;28;20327;-51
2022/08/04 01:59:57;;;;;;;;;;;;;;;28.21;38.47;99357.31;2077321;28;20594;-49
2022/08/04 02:01:01;;;;;;;;;;;;;;;28.23;38.39;99364.56;2087732;28;19959;-50
2022/08/04 02:02:01;;;;;;;;;;;;;;;28.21;38.27;99362.88;2085953;28;19916;-52
2022/08/04 02:03:02;;;;;;;;;;;;;;;28.21;38.20;99362.88;2081856;28;20345;-49
2022/08/04 02:04:02;;;;;;;;;;;;;;;28.20;38.14;99358.41;2090280;28;19965;-51
2022/08/04 02:05:02;;;;;;;;;;;;;;;28.21;38.20;99362.03;2080944;28;19923;-49
2022/08/04 02:06:07;;;;;;;;;;;;;;;28.21;38.42;99362.03;2085814;28;20408;-50
2022/08/04 02:07:20;;;;;;;;;;;;;;;28.21;38.48;99362.88;2084797;28;19939;-49
2022/08/04 02:08:26;;;;;;;;;;;;;;;28.21;38.39;99362.03;2072380;28;20416;-51
2022/08/04 02:09:33;;;;;;;;;;;;;;;28.21;38.43;99359.25;2082001;28;20830;-49
2022/08/04 02:10:57;;;;;;;;;;;;;;;28.20;38.46;99363.94;2092131;28;19990;-49
2022/08/04 02:12:02;;;;;;;;;;;;;;;28.19;38.33;99370.53;2086405;28;19916;-49
2022/08/04 02:13:21;;;;;;;;;;;;;;;28.20;38.53;99365.88;2079471;28;19990;-51
2022/08/04 02:14:39;;;;;;;;;;;;;;;28.19;38.53;99359.47;2076861;28;19917;-50
2022/08/04 02:15:42;;;;;;;;;;;;;;;28.20;38.54;99361.19;2078184;28;20382;-48
2022/08/04 02:16:48;;;;;;;;;;;;;;;28.20;38.50;99361.19;2080673;28;20560;-50
2022/08/04 02:17:56;;;;;;;;;;;;;;;28.20;38.64;99366.72;2089065;28;19916;-49
2022/08/04 02:18:56;;;;;;;;;;;;;;;28.21;38.68;99362.03;2093574;28;20003;-49
2022/08/04 02:20:14;;;;;;;;;;;;;;;28.21;38.75;99362.03;2085695;28;20209;-47
2022/08/04 02:21:17;;;;;;;;;;;;;;;28.20;38.70;99366.72;2091589;28;19920;-46
2022/08/04 02:22:18;;;;;;;;;;;;;;;28.21;38.85;99362.88;2092092;28;19920;-45
2022/08/04 02:23:25;;;;;;;;;;;;;;;28.20;38.81;99361.19;2091200;28;19942;-47
2022/08/04 02:24:26;;;;;;;;;;;;;;;28.19;38.75;99355.84;2089738;28;19944;-47
2022/08/04 02:25:28;;;;;;;;;;;;;;;28.21;38.97;99367.56;2093266;28;20459;-47
2022/08/04 02:26:31;;;;;;;;;;;;;;;28.20;38.89;99365.88;2086247;28;20200;-45
2022/08/04 02:27:46;;;;;;;;;;;;;;;28.20;38.79;99371.41;2090093;28;19916;-46
2022/08/04 02:28:52;;;;;;;;;;;;;;;28.20;38.86;99368.66;2088525;28;20048;-47
2022/08/04 02:30:01;;;;;;;;;;;;;;;28.20;38.89;99368.66;2085524;28;19970;-45
2022/08/04 02:31:01;;;;;;;;;;;;;;;28.21;38.76;99368.41;2092146;28;19966;-46
2022/08/04 02:32:10;;;;;;;;;;;;;;;28.19;38.69;99376.09;2095010;28;19912;-46
2022/08/04 02:33:12;;;;;;;;;;;;;;;28.20;39.03;99372.25;2084641;28;19916;-46
2022/08/04 02:34:27;;;;;;;;;;;;;;;28.20;38.96;99376.97;2090889;28;19923;-48
2022/08/04 02:35:28;;;;;;;;;;;;;;;28.19;38.84;99376.09;2090972;28;20069;-49
2022/08/04 02:36:39;;;;;;;;;;;;;;;28.19;39.10;99381.63;2085507;28;20445;-47
2022/08/04 02:37:45;;;;;;;;;;;;;;;28.19;38.92;99381.63;2093096;28;20472;-46
2022/08/04 02:38:49;;;;;;;;;;;;;;;28.20;39.08;99385.28;2093464;28;20504;-47
2022/08/04 02:39:51;;;;;;;;;;;;;;;28.19;38.96;99376.09;2092543;28;19908;-46
2022/08/04 02:40:54;;;;;;;;;;;;;;;28.19;38.92;99387.16;2094326;28;19987;-46
2022/08/04 02:41:54;;;;;;;;;;;;;;;28.19;38.89;99392.72;2091488;28;19931;-46
2022/08/04 02:42:56;;;;;;;;;;;;;;;28.18;38.89;99391.03;2094405;28;20711;-47
2022/08/04 02:43:59;;;;;;;;;;;;;;;28.19;38.86;99398.25;2091472;28;19916;-46
2022/08/04 02:45:00;;;;;;;;;;;;;;;28.18;38.97;99396.56;2090253;28;20330;-46
2022/08/04 02:46:01;;;;;;;;;;;;;;;28.17;38.90;99397.66;2086182;28;20204;-47
2022/08/04 02:47:01;;;;;;;;;;;;;;;28.18;38.87;99396.56;2084558;28;19916;-46
2022/08/04 02:48:02;;;;;;;;;;;;;;;28.19;38.90;99403.81;2085711;28;20312;-47
2022/08/04 02:49:04;;;;;;;;;;;;;;;28.18;38.72;99396.56;2086252;28;20238;-45
2022/08/04 02:50:07;;;;;;;;;;;;;;;28.17;38.93;99402.34;2089163;28;19928;-47
2022/08/04 02:51:10;;;;;;;;;;;;;;;28.17;38.82;99400.44;2094082;28;19923;-45
2022/08/04 02:52:11;;;;;;;;;;;;;;;28.17;38.90;99399.56;2092371;28;19916;-47
2022/08/04 02:53:14;;;;;;;;;;;;;;;28.17;38.82;99394.03;2092274;28;20292;-47
2022/08/04 02:54:16;;;;;;;;;;;;;;;28.17;38.90;99396.78;2094042;28;20645;-45
2022/08/04 02:55:17;;;;;;;;;;;;;;;28.16;38.97;99398.72;2092389;28;19912;-46
2022/08/04 02:56:19;;;;;;;;;;;;;;;28.17;38.79;99399.56;2094219;28;19913;-46
2022/08/04 02:57:22;;;;;;;;;;;;;;;28.16;38.87;99398.72;2092607;28;19923;-47
2022/08/04 02:58:23;;;;;;;;;;;;;;;28.17;38.96;99399.56;2091471;28;19916;-49
2022/08/04 02:59:25;;;;;;;;;;;;;;;28.16;38.78;99398.72;2094819;28;19978;-46
2022/08/04 03:00:25;;;;;;;;;;;;;;;28.17;38.99;99405.97;2086813;28;19924;-47
2022/08/04 03:01:25;;;;;;;;;;;;;;;28.16;38.88;99404.25;2088366;28;19928;-45
2022/08/04 03:02:30;;;;;;;;;;;;;;;28.18;38.92;99402.13;2087173;28;19923;-47
2022/08/04 03:03:50;;;;;;;;;;;;;;;28.16;38.95;99401.50;2088198;28;20603;-46
2022/08/04 03:04:56;;;;;;;;;;;;;;;28.16;38.94;99404.25;2089193;28;19912;-47
2022/08/04 03:05:59;;;;;;;;;;;;;;;28.17;38.90;99405.09;2088381;28;19913;-45
2022/08/04 03:06:59;;;;;;;;;;;;;;;28.16;38.92;99398.72;2090781;28;19908;-48
2022/08/04 03:08:26;;;;;;;;;;;;;;;28.15;38.92;99399.81;2094152;28;19908;-46
2022/08/04 03:09:45;;;;;;;;;;;;;;;28.15;39.28;99397.03;2089564;28;19908;-47
2022/08/04 03:11:04;;;;;;;;;;;;;;;28.16;39.33;99398.72;2092520;28;19938;-45
2022/08/04 03:12:04;;;;;;;;;;;;;;;28.15;38.91;99402.56;2086841;28;19924;-46
2022/08/04 03:13:23;;;;;;;;;;;;;;;28.15;38.93;99405.34;2089136;28;20306;-49
2022/08/04 03:14:26;;;;;;;;;;;;;;;28.15;38.88;99394.25;2088778;28;19912;-49
2022/08/04 03:15:44;;;;;;;;;;;;;;;28.15;38.93;99408.13;2094271;28;20329;-48
2022/08/04 03:16:47;;;;;;;;;;;;;;;28.14;38.95;99403.63;2085544;28;19928;-46
2022/08/04 03:18:00;;;;;;;;;;;;;;;28.14;38.95;99405.56;2085388;28;19920;-48
2022/08/04 03:19:15;;;;;;;;;;;;;;;28.15;38.94;99397.03;2086849;28;20521;-46
2022/08/04 03:20:34;;;;;;;;;;;;;;;28.15;39.02;99397.03;2086356;28;19919;-46
2022/08/04 03:21:59;;;;;;;;;;;;;;;28.14;39.09;99395.31;2092110;28;19958;-47
2022/08/04 03:23:15;;;;;;;;;;;;;;;28.13;39.06;99393.63;2092094;28;19912;-45
2022/08/04 03:24:34;;;;;;;;;;;;;;;28.14;38.99;99398.09;2090959;28;20016;-47
2022/08/04 03:25:37;;;;;;;;;;;;;;;28.14;39.14;99397.25;2093511;28;19923;-47
2022/08/04 03:26:40;;;;;;;;;;;;;;;28.13;39.20;99398.34;2091399;28;20017;-47
2022/08/04 03:28:04;;;;;;;;;;;;;;;28.13;39.03;99399.19;2091753;28;19916;-46
2022/08/04 03:29:10;;;;;;;;;;;;;;;28.13;39.15;99404.72;2066179;28;19921;-46
2022/08/04 03:30:27;;;;;;;;;;;;;;;28.13;39.23;99403.88;2094104;28;20105;-46
2022/08/04 03:31:37;;;;;;;;;;;;;;;28.12;38.93;99403.00;2091869;28;19916;-46
2022/08/04 03:32:40;;;;;;;;;;;;;;;28.12;39.04;99405.78;2088449;28;19925;-45
2022/08/04 03:33:43;;;;;;;;;;;;;;;28.12;38.89;99403.00;2094168;28;19955;-46
2022/08/04 03:34:59;;;;;;;;;;;;;;;28.13;39.01;99403.88;2090436;28;20257;-46
2022/08/04 03:36:12;;;;;;;;;;;;;;;28.12;38.86;99407.72;2087374;28;19986;-45
2022/08/04 03:37:12;;;;;;;;;;;;;;;28.12;39.08;99402.16;2095006;28;19915;-46
2022/08/04 03:38:16;;;;;;;;;;;;;;;28.12;38.99;99403.00;2090514;28;20272;-46
2022/08/04 03:39:42;;;;;;;;;;;;;;;28.11;38.89;99401.31;2092830;28;20495;-47
2022/08/04 03:41:01;;;;;;;;;;;;;;;28.12;38.93;99407.72;2091138;28;19916;-47
2022/08/04 03:42:19;;;;;;;;;;;;;;;28.13;38.96;99415.81;2094411;28;20069;-47
2022/08/04 03:43:45;;;;;;;;;;;;;;;28.13;38.89;99420.50;2087678;28;19912;-46
2022/08/04 03:44:58;;;;;;;;;;;;;;;28.13;39.17;99417.72;2082920;28;20035;-48
2022/08/04 03:45:58;;;;;;;;;;;;;;;28.13;39.10;99412.19;2084249;28;19940;-45
2022/08/04 03:46:59;;;;;;;;;;;;;;;28.12;38.92;99414.09;2093345;28;19978;-48
2022/08/04 03:48:22;;;;;;;;;;;;;;;28.11;39.00;99412.41;2086312;28;19916;-48
2022/08/04 03:49:36;;;;;;;;;;;;;;;28.12;39.20;99416.84;2087664;28;19923;-46
2022/08/04 03:50:46;;;;;;;;;;;;;;;28.12;39.15;99429.88;2085933;28;19912;-46
2022/08/04 03:53:35;;;;;;;;;;;;;;;28.12;39.09;99430.72;2089051;28;20255;-46
2022/08/04 03:54:48;;;;;;;;;;;;;;;28.11;39.08;99426.25;2090255;28;20120;-46
2022/08/04 03:56:07;;;;;;;;;;;;;;;28.11;39.21;99429.03;2092206;28;20346;-47
2022/08/04 03:57:07;;;;;;;;;;;;;;;28.11;39.08;99426.25;2086481;28;20264;-47
2022/08/04 03:58:14;;;;;;;;;;;;;;;28.11;39.19;99428.19;2091232;28;20251;-49
2022/08/04 03:59:14;;;;;;;;;;;;;;;28.11;39.10;99433.72;2092206;28;20420;-46
2022/08/04 04:00:17;;;;;;;;;;;;;;;28.10;38.88;99430.13;2093520;28;19942;-45
2022/08/04 04:01:36;;;;;;;;;;;;;;;28.09;39.06;99431.16;2090412;28;19917;-47
2022/08/04 04:02:59;;;;;;;;;;;;;;;28.10;38.94;99434.78;2089832;28;20602;-48
2022/08/04 04:04:03;;;;;;;;;;;;;;;28.09;39.09;99428.41;2079149;28;20061;-45
2022/08/04 04:05:09;;;;;;;;;;;;;;;28.09;39.00;99431.16;2093159;28;20015;-46
2022/08/04 04:06:28;;;;;;;;;;;;;;;28.10;39.02;99432.00;2086655;28;20340;-48
2022/08/04 04:07:31;;;;;;;;;;;;;;;28.09;39.15;99436.72;2088650;28;19915;-47
2022/08/04 04:08:46;;;;;;;;;;;;;;;28.09;38.98;99433.94;2093840;28;19915;-46
2022/08/04 04:10:02;;;;;;;;;;;;;;;28.09;38.96;99442.25;2086869;28;19963;-47
2022/08/04 04:11:21;;;;;;;;;;;;;;;28.09;38.96;99447.78;2090724;28;19966;-49
2022/08/04 04:12:24;;;;;;;;;;;;;;;28.08;38.82;99443.34;2090655;28;19935;-45
2022/08/04 04:13:33;;;;;;;;;;;;;;;28.08;38.98;99446.09;2084803;28;20402;-49
2022/08/04 04:14:37;;;;;;;;;;;;;;;28.08;38.89;99448.88;2087765;28;19916;-47
2022/08/04 04:15:46;;;;;;;;;;;;;;;28.07;38.92;99444.41;2094230;28;19916;-47
2022/08/04 04:16:46;;;;;;;;;;;;;;;28.08;38.96;99445.28;2082011;28;20343;-47
2022/08/04 04:17:59;;;;;;;;;;;;;;;28.09;38.69;99452.50;2088257;28;20025;-46
2022/08/04 04:19:17;;;;;;;;;;;;;;;28.08;39.02;99451.66;2091695;28;19969;-47
2022/08/04 04:20:32;;;;;;;;;;;;;;;28.10;38.70;99448.63;2093592;28;19924;-47
2022/08/04 04:21:55;;;;;;;;;;;;;;;28.08;38.74;99446.09;2092381;28;19963;-49
2022/08/04 04:23:08;;;;;;;;;;;;;;;28.09;38.76;99452.50;2093949;28;20014;-45
2022/08/04 04:24:23;;;;;;;;;;;;;;;28.09;38.82;99452.50;2093885;28;19908;-46
2022/08/04 04:25:23;;;;;;;;;;;;;;;28.09;38.80;99458.88;2096589;28;20425;-47
2022/08/04 04:26:35;;;;;;;;;;;;;;;28.09;38.85;99456.09;2094057;28;19923;-46
2022/08/04 04:27:42;;;;;;;;;;;;;;;28.09;38.75;99456.09;2094768;28;19912;-48
2022/08/04 04:28:42;;;;;;;;;;;;;;;28.09;38.87;99461.66;2096252;28;19916;-49
2022/08/04 04:29:56;;;;;;;;;;;;;;;28.09;39.03;99461.66;2094878;28;20311;-46
2022/08/04 04:31:14;;;;;;;;;;;;;;;28.09;38.89;99458.03;2094128;28;19952;-47
2022/08/04 04:32:34;;;;;;;;;;;;;;;28.09;38.81;99461.66;2094311;28;20694;-47
2022/08/04 04:33:34;;;;;;;;;;;;;;;28.07;38.78;99452.72;2095890;28;19920;-47
2022/08/04 04:34:37;;;;;;;;;;;;;;;28.07;39.05;99455.47;2095976;28;19919;-48
2022/08/04 04:36:00;;;;;;;;;;;;;;;28.09;38.88;99458.88;2092481;28;19917;-47
2022/08/04 04:37:12;;;;;;;;;;;;;;;28.08;39.04;99459.97;2082820;28;19915;-47
2022/08/04 04:38:16;;;;;;;;;;;;;;;28.08;38.87;99464.66;2094417;28;20082;-46
2022/08/04 04:39:25;;;;;;;;;;;;;;;28.07;38.88;99466.56;2090430;28;19967;-45
2022/08/04 04:40:28;;;;;;;;;;;;;;;28.06;38.90;99464.03;2092988;28;19920;-46
2022/08/04 04:41:47;;;;;;;;;;;;;;;28.08;38.93;99461.88;2095694;28;20279;-48
2022/08/04 04:43:06;;;;;;;;;;;;;;;28.06;38.88;99459.34;2092520;28;19916;-47
2022/08/04 04:44:32;;;;;;;;;;;;;;;28.07;38.92;99462.94;2089778;28;19939;-48
2022/08/04 04:45:51;;;;;;;;;;;;;;;28.08;38.96;99459.97;2069207;28;19928;-47
2022/08/04 04:46:51;;;;;;;;;;;;;;;28.07;38.88;99465.72;2094825;28;19920;-48
2022/08/04 04:48:07;;;;;;;;;;;;;;;28.06;38.85;99459.34;2093916;28;20010;-46
2022/08/04 04:49:16;;;;;;;;;;;;;;;28.05;38.78;99457.66;2091589;28;19969;-46
2022/08/04 04:50:29;;;;;;;;;;;;;;;28.06;38.86;99464.03;2094304;28;20023;-46
2022/08/04 04:52:01;;;;;;;;;;;;;;;28.06;38.91;99461.25;2093012;28;19916;-47
2022/08/04 04:53:14;;;;;;;;;;;;;;;28.05;38.86;99465.09;2067844;28;19913;-46
2022/08/04 04:54:17;;;;;;;;;;;;;;;28.06;38.82;99469.56;2089494;28;19920;-49
2022/08/04 04:55:23;;;;;;;;;;;;;;;28.05;38.85;99474.28;2094624;28;20249;-46
2022/08/04 04:56:26;;;;;;;;;;;;;;;28.06;38.69;99475.13;2095026;28;19963;-47
2022/08/04 04:57:29;;;;;;;;;;;;;;;28.05;38.84;99468.72;2092143;28;19959;-47
2022/08/04 04:58:31;;;;;;;;;;;;;;;28.06;38.79;99475.13;2093580;28;20037;-47
2022/08/04 04:59:34;;;;;;;;;;;;;;;28.05;38.62;99479.81;2093871;28;20077;-46
2022/08/04 05:00:43;;;;;;;;;;;;;;;28.06;38.81;99473.19;2094583;28;20007;-50
2022/08/04 05:01:59;;;;;;;;;;;;;;;28.06;38.64;99478.72;2092687;28;19924;-46
2022/08/04 05:02:59;;;;;;;;;;;;;;;28.06;38.63;99477.88;2094911;28;19916;-48
2022/08/04 05:04:10;;;;;;;;;;;;;;;28.05;38.68;99474.28;2095489;28;19908;-47
2022/08/04 05:05:26;;;;;;;;;;;;;;;28.05;38.79;99474.28;2092881;28;19927;-47
2022/08/04 05:06:26;;;;;;;;;;;;;;;28.06;38.62;99483.44;2094807;28;20311;-47
2022/08/04 05:07:33;;;;;;;;;;;;;;;28.06;38.71;99477.88;2097671;28;19924;-48
2022/08/04 05:08:52;;;;;;;;;;;;;;;28.05;38.73;99482.59;2092902;28;19955;-46
2022/08/04 05:10:21;;;;;;;;;;;;;;;28.06;38.76;99486.19;2092972;28;19971;-46
2022/08/04 05:11:40;;;;;;;;;;;;;;;28.05;38.80;99485.34;2093001;28;20351;-47
2022/08/04 05:12:43;;;;;;;;;;;;;;;28.06;38.82;99480.66;2090076;28;19920;-49
2022/08/04 05:13:45;;;;;;;;;;;;;;;28.05;39.07;99490.91;2088134;28;19916;-46
2022/08/04 05:14:47;;;;;;;;;;;;;;;28.05;38.73;99490.91;2092671;28;20300;-46
2022/08/04 05:15:50;;;;;;;;;;;;;;;28.04;38.77;99494.72;2094245;28;20296;-45
2022/08/04 05:16:55;;;;;;;;;;;;;;;28.06;38.76;99486.19;2096609;28;19967;-47
2022/08/04 05:17:57;;;;;;;;;;;;;;;28.05;38.92;99485.34;2093560;28;19919;-47
2022/08/04 05:19:17;;;;;;;;;;;;;;;28.04;39.01;99489.19;2092234;28;19912;-45
2022/08/04 05:20:23;;;;;;;;;;;;;;;28.03;38.84;99501.34;2092152;28;20353;-45
2022/08/04 05:21:36;;;;;;;;;;;;;;;28.04;39.12;99499.41;2093727;28;19924;-45
2022/08/04 05:22:43;;;;;;;;;;;;;;;28.04;38.92;99503.03;2094136;28;19924;-46
2022/08/04 05:23:48;;;;;;;;;;;;;;;28.03;39.04;99504.13;2093710;28;19931;-47
2022/08/04 05:24:52;;;;;;;;;;;;;;;28.04;39.15;99503.03;2086106;28;19932;-49
2022/08/04 05:25:54;;;;;;;;;;;;;;;28.04;39.04;99499.41;2093540;28;20044;-47
2022/08/04 05:26:58;;;;;;;;;;;;;;;28.03;38.99;99503.25;2096034;28;19987;-46
2022/08/04 05:28:05;;;;;;;;;;;;;;;28.04;39.13;99502.19;2093070;28;19912;-47
2022/08/04 05:29:08;;;;;;;;;;;;;;;28.03;39.11;99498.56;2094423;28;20511;-46
2022/08/04 05:30:09;;;;;;;;;;;;;;;28.04;39.08;99503.03;2096412;28;20042;-45
2022/08/04 05:31:11;;;;;;;;;;;;;;;28.04;39.18;99511.34;2093944;28;20092;-46
2022/08/04 05:32:13;;;;;;;;;;;;;;;28.04;39.20;99504.97;2094940;28;19972;-47
2022/08/04 05:33:15;;;;;;;;;;;;;;;28.04;39.15;99516.03;2096405;28;19915;-47
2022/08/04 05:34:25;;;;;;;;;;;;;;;28.03;39.06;99509.66;2091269;28;19916;-46
2022/08/04 05:35:46;;;;;;;;;;;;;;;28.03;39.07;99512.44;2093341;28;20259;-46
2022/08/04 05:36:48;;;;;;;;;;;;;;;28.02;39.09;99507.94;2086843;28;20022;-46
2022/08/04 05:37:51;;;;;;;;;;;;;;;28.03;39.19;99509.66;2088291;28;19927;-46
2022/08/04 05:38:53;;;;;;;;;;;;;;;28.04;39.17;99510.50;2094291;28;19916;-46
2022/08/04 05:39:56;;;;;;;;;;;;;;;28.04;39.28;99510.50;2094174;28;20088;-47
2022/08/04 05:40:57;;;;;;;;;;;;;;;28.04;39.12;99522.41;2097160;28;19916;-46
2022/08/04 05:41:58;;;;;;;;;;;;;;;28.03;39.14;99515.19;2100212;28;19993;-46
2022/08/04 05:43:00;;;;;;;;;;;;;;;28.03;39.29;99515.19;2087276;28;20465;-47
2022/08/04 05:44:01;;;;;;;;;;;;;;;28.03;39.20;99520.72;2091462;28;19916;-48
2022/08/04 05:45:02;;;;;;;;;;;;;;;28.04;39.18;99527.97;2092429;28;20509;-47
2022/08/04 05:46:03;;;;;;;;;;;;;;;28.04;39.29;99530.72;2092610;28;19947;-46
2022/08/04 05:47:04;;;;;;;;;;;;;;;28.04;39.21;99522.41;2101299;28;19923;-48
2022/08/04 05:48:07;;;;;;;;;;;;;;;28.04;39.42;99530.72;2100558;28;19968;-46
2022/08/04 05:49:08;;;;;;;;;;;;;;;28.04;39.42;99530.72;2095342;28;20313;-49
2022/08/04 05:50:08;;;;;;;;;;;;;;;28.03;39.47;99525.41;2091551;28;20166;-48
2022/08/04 05:51:09;;;;;;;;;;;;;;;28.03;39.46;99531.81;2090654;28;19941;-47
2022/08/04 05:52:11;;;;;;;;;;;;;;;28.04;39.43;99533.50;2092303;28;20242;-48
2022/08/04 05:53:13;;;;;;;;;;;;;;;28.03;39.51;99526.28;2090926;28;19909;-45
2022/08/04 05:54:14;;;;;;;;;;;;;;;28.03;39.54;99526.28;2091143;28;19930;-47